Latest Weather Observations for Gudgenby

IDN60801

Issued at 6:23 pm EST Saturday 9 May 2026 (issued every 10 minutes, with the page automatically refreshed every 10 minutes)

About weather observations | Map of weather stations | Latest weather observations for NSW | Other Formats
Station Details ID: 250072 Name: AFSD - GUDGENBY Lat: -35.73 Lon: 148.98 Height: 1035.0 m

Portable automatic weather stations (PAWS) are operated by other organisations, such as Fire and Emergency Services, and are included here by agreement. Portable stations may be deployed to a location for a short period and their location may be subject to change without notice. Wind observations from these stations are provided from heights of either three (3) or ten (10) metres above ground level (AGL).

Data from the previous 72 hours. | See also: Recent months for locations in New South Wales
Date/Time
EST
Temp
°C
App
Temp
°C
Dew
Point
°C
Rel
Hum
%
Delta-T
°C
Wind Press
QNH
hPa
Press
MSL
hPa
Rain since
9am
mm
Dir  Spd
km/h
Gust
km/h
Spd
kts
Gust
kts
09/06:00pm 10.6 8.1 4.9 68 2.7 SSW 7 9 4 5 1027.0 - 0.0
09/05:30pm 12.1 9.9 5.3 63 3.3 S 6 7 3 4 1026.4 - 0.0
09/05:00pm 13.2 9.9 4.8 56 4.1 S 11 13 6 7 1025.8 - 0.0
09/04:30pm 15.0 11.0 5.1 51 4.9 S 15 17 8 9 1025.6 - 0.0
09/04:00pm 15.9 11.1 4.8 47 5.5 S 19 20 10 11 1025.3 - 0.0
09/03:30pm 16.2 11.2 4.4 45 5.9 SSW 20 22 11 12 1025.1 - 0.0
09/03:00pm 16.6 11.9 3.3 41 6.5 S 17 20 9 11 1025.0 - 0.0
09/02:30pm 16.7 12.0 3.1 40 6.6 S 17 19 9 10 1024.9 - 0.0
09/02:00pm 16.7 12.4 1.2 35 7.2 SE 13 20 7 11 1024.8 - 0.0
09/01:00pm 16.3 13.6 3.9 43 6.1 E 7 13 4 7 1025.0 - 0.0
09/12:30pm 16.2 14.6 4.3 45 5.9 SE 2 6 1 3 1025.3 - 0.0
09/12:00pm 15.2 12.8 5.3 51 5.0 ENE 7 15 4 8 1025.7 - 0.0
09/11:30am 15.0 13.1 4.9 51 5.0 NE 4 6 2 3 1026.1 - 0.0
09/11:00am 13.9 12.3 4.7 54 4.5 SSW 2 6 1 3 1026.2 - 0.0
09/10:30am 12.8 11.2 4.6 57 4.0 E 2 4 1 2 1026.4 - 0.0
09/10:00am 11.0 9.1 5.0 66 2.9 N 4 7 2 4 1026.4 - 0.0
09/09:30am 9.7 8.2 4.8 71 2.3 SSW 2 4 1 2 1026.5 - 0.0
09/09:00am 8.3 6.3 4.3 76 1.9 NNW 4 6 2 3 1026.5 - 0.0
09/08:30am 6.7 5.4 4.2 84 1.1 CALM 0 4 0 2 1026.4 - 0.0
09/08:00am 3.0 0.9 2.0 93 0.4 ESE 2 6 1 3 1025.9 - 0.0
09/07:00am 1.7 -0.5 1.2 96 0.2 E 2 4 1 2 1025.6 - 0.0
09/06:30am 1.0 -1.7 0.4 96 0.2 S 4 6 2 3 1025.3 - 0.0
09/05:30am 2.0 -0.9 1.3 95 0.3 S 6 7 3 4 1024.5 - 0.0
09/05:00am 2.1 -0.8 1.4 95 0.3 SSW 6 7 3 4 1024.2 - 0.0
09/04:30am 3.3 1.3 2.3 93 0.4 S 2 6 1 3 1023.9 - 0.0
09/04:00am 3.9 1.6 3.0 94 0.4 N 4 7 2 4 1023.8 - 0.0
09/03:30am 4.7 2.1 3.1 89 0.7 S 6 11 3 6 1023.8 - 0.0
09/03:00am 6.8 4.7 3.7 80 1.4 SW 4 6 2 3 1023.8 - 0.0
09/02:30am 7.2 5.5 3.9 79 1.5 W 2 6 1 3 1023.8 - 0.0
09/02:00am 7.4 5.3 3.9 78 1.6 SSE 4 4 2 2 1023.7 - 0.0
09/01:00am 8.0 5.5 4.0 76 1.8 S 6 7 3 4 1023.6 - 0.0
09/12:30am 8.1 5.7 4.2 76 1.8 SSE 6 7 3 4 1023.5 - 0.0
09/12:00am 8.3 5.8 3.9 74 2.0 SE 6 6 3 3 1023.3 - 0.0
 
Date/Time
EST
Temp
°C
App
Temp
°C
Dew
Point
°C
Rel
Hum
%
Delta-T
°C
Wind Press
QNH
hPa
Press
MSL
hPa
Rain since
9am
mm
Dir  Spd
km/h
Gust
km/h
Spd
kts
Gust
kts
08/11:30pm 8.5 5.9 4.0 73 2.1 S 7 9 4 5 1023.2 - 0.0
08/11:00pm 8.5 4.4 4.2 74 2.0 S 15 17 8 9 1023.2 - 0.0
08/10:30pm 8.2 4.1 4.3 76 1.8 S 15 17 8 9 1023.1 - 0.0
08/10:00pm 9.0 5.2 3.7 69 2.5 SSW 13 19 7 10 1022.8 - 0.0
08/09:30pm 9.4 5.5 3.6 67 2.7 SSW 13 19 7 10 1023.0 - 0.0
08/09:00pm 9.4 6.3 3.7 67 2.6 SSW 9 11 5 6 1022.8 - 0.0
08/08:30pm 9.2 4.6 3.7 68 2.5 SSW 17 19 9 10 1022.8 - 0.0
08/08:00pm 9.2 4.0 3.4 67 2.7 SSW 20 24 11 13 1022.6 - 0.0
08/07:00pm 9.3 4.6 3.2 65 2.8 WSW 17 20 9 11 1021.9 - 0.0
08/06:30pm 8.7 6.0 2.9 67 2.6 SSW 6 11 3 6 1021.6 - 0.0
08/06:00pm 9.0 5.4 2.8 65 2.8 SW 11 17 6 9 1020.9 - 0.0
08/05:00pm 10.0 5.6 2.6 60 3.4 SW 15 22 8 12 1019.8 - 0.0
08/04:30pm 10.5 6.4 2.4 57 3.7 SW 13 22 7 12 1019.2 - 0.0
08/04:00pm 10.8 6.3 2.4 56 3.8 SW 15 20 8 11 1019.1 - 0.0
08/03:30pm 11.5 5.4 2.7 54 4.1 SSW 24 33 13 18 1018.7 - 0.0
08/03:00pm 12.0 7.2 2.4 52 4.4 SSW 17 22 9 12 1018.5 - 0.0
08/02:30pm 12.0 5.4 2.2 51 4.5 SW 26 32 14 17 1018.1 - 0.0
08/02:00pm 12.2 6.9 1.8 49 4.7 SW 19 35 10 19 1018.1 - 0.0
08/01:30pm 11.9 5.3 2.0 50 4.5 SW 26 37 14 20 1017.6 - 0.0
08/12:00pm 11.6 4.0 0.3 46 5.0 SW 30 41 16 22 1018.0 - 0.0
08/10:30am 10.3 4.9 1.3 53 4.0 SW 19 26 10 14 1018.6 - 0.0
08/10:00am 9.6 4.2 1.1 55 3.7 WSW 19 26 10 14 1018.5 - 0.0
08/09:30am 8.7 4.5 1.4 60 3.2 WSW 13 22 7 12 1018.5 - 0.0
08/09:00am 7.9 2.3 1.2 62 2.9 WSW 20 26 11 14 1018.4 - 0.0
08/08:30am 7.8 2.3 0.7 61 3.0 SW 19 28 10 15 1018.0 - 0.0
08/08:00am 7.2 1.5 0.8 64 2.7 WSW 20 35 11 19 1017.8 - 0.0
08/07:30am 6.7 1.0 0.7 65 2.5 WSW 20 30 11 16 1017.8 - 0.0
08/07:00am 5.8 -0.7 0.6 69 2.2 WSW 24 32 13 17 1017.3 - 0.0
08/06:30am 5.7 -1.5 0.4 69 2.2 WSW 28 44 15 24 1017.3 - 0.0
08/06:00am 5.8 -0.3 0.7 70 2.1 WSW 22 28 12 15 1016.9 - 0.0
08/05:30am 5.7 -1.1 0.6 70 2.1 WSW 26 33 14 18 1016.7 - 0.0
08/05:00am 5.6 -1.2 0.5 70 2.1 WSW 26 32 14 17 1017.0 - 0.0
08/04:30am 5.3 -0.2 0.3 70 2.1 SW 19 22 10 12 1017.2 - 0.0
08/03:30am 5.1 -1.8 0.2 70 2.0 WSW 26 33 14 18 1017.1 - 0.0
08/03:00am 4.9 -1.6 0.0 70 2.0 WSW 24 28 13 15 1017.0 - 0.0
08/02:30am 4.7 -1.1 0.0 71 1.9 WSW 20 32 11 17 1017.1 - 0.0
08/02:00am 4.6 -0.7 -0.7 68 2.1 WSW 17 22 9 12 1017.5 - 0.0
08/01:00am 3.8 -2.9 -0.8 72 1.8 WSW 24 33 13 18 1017.9 - 0.0
08/12:30am 3.7 -3.4 -0.9 72 1.8 W 26 33 14 18 1018.2 - 0.0
08/12:00am 3.6 -3.5 -1.3 70 1.9 W 26 32 14 17 1018.3 - 0.0
 
Date/Time
EST
Temp
°C
App
Temp
°C
Dew
Point
°C
Rel
Hum
%
Delta-T
°C
Wind Press
QNH
hPa
Press
MSL
hPa
Rain since
9am
mm
Dir  Spd
km/h
Gust
km/h
Spd
kts
Gust
kts
07/11:30pm 3.5 -1.2 -1.8 68 2.0 W 13 17 7 9 1018.6 - 0.0
07/11:00pm 3.5 -0.9 -2.1 67 2.1 WSW 11 17 6 9 1018.8 - 0.0
07/10:30pm 3.5 -1.3 -2.5 65 2.3 WSW 13 19 7 10 1018.9 - 0.0
07/10:00pm 3.3 -1.9 -2.6 65 2.2 WSW 15 19 8 10 1019.2 - 0.0
07/09:30pm 3.4 -1.8 -2.7 64 2.3 WSW 15 22 8 12 1019.1 - 0.0
07/09:00pm 3.4 -1.0 -2.8 64 2.3 WSW 11 17 6 9 1019.1 - 0.0
07/08:00pm 3.3 -1.2 -3.0 63 2.3 SW 11 13 6 7 1018.5 - 0.0
07/07:30pm 3.3 -1.9 -3.0 63 2.3 SW 15 24 8 13 1018.7 - 0.0
07/07:00pm 3.4 -1.9 -3.7 60 2.6 SW 15 19 8 10 1018.5 - 0.0
07/06:30pm 3.8 -5.4 -4.2 56 2.9 SSW 35 46 19 25 1017.8 - 0.0
07/06:00pm 3.7 -2.3 -3.2 60 2.6 SW 19 24 10 13 1017.8 - 0.0
07/05:00pm 4.0 -1.5 -2.3 63 2.4 WSW 17 24 9 13 1017.4 - 0.0
07/04:30pm 4.3 -2.3 -3.0 59 2.7 W 22 33 12 18 1016.9 - 0.0
07/04:00pm 5.0 -3.1 -3.5 54 3.2 W 30 33 16 18 1017.1 - 0.0
07/03:30pm 5.3 -1.4 -4.5 49 3.6 WSW 22 32 12 17 1016.5 - 0.0
07/03:00pm 6.2 -1.3 -4.7 45 4.0 WSW 26 30 14 16 1016.0 - 0.0
07/02:30pm 6.4 -1.4 -3.6 49 3.8 W 28 33 15 18 1016.0 - 0.0
07/02:00pm 7.0 0.8 -3.5 47 4.0 WSW 20 24 11 13 1015.7 - 0.0
07/01:30pm 6.4 -2.3 -5.0 44 4.2 SSW 32 52 17 28 1015.3 - 0.0
07/01:00pm 6.1 -1.4 -4.9 45 4.0 SSW 26 35 14 19 1015.0 - 0.0
07/12:30pm 6.4 0.2 -4.4 46 4.0 SW 19 22 10 12 1015.3 - 0.0
07/12:00pm 5.8 -1.7 -5.0 46 3.9 SSW 26 37 14 20 1015.1 - 0.0
07/11:30am 6.1 -1.0 -4.6 46 3.9 SSW 24 35 13 19 1015.0 - 0.0
07/11:00am 5.4 -1.3 -3.8 51 3.4 SW 22 32 12 17 1015.2 - 0.0
07/10:30am 5.3 0.3 -3.9 51 3.4 SW 13 17 7 9 1015.0 - 0.0
07/09:30am 3.6 -2.6 -4.6 55 2.9 WSW 19 32 10 17 1015.0 - 0.0
07/09:00am 3.4 -2.0 -4.4 56 2.8 SW 15 22 8 12 1014.9 - 0.2
07/08:30am 3.0 -2.7 -4.1 59 2.5 SW 17 19 9 10 1014.8 - 0.2
07/08:00am 3.5 -4.0 -4.3 56 2.8 W 26 33 14 18 1013.9 - 0.2
07/07:30am 3.4 -4.9 -4.5 56 2.8 W 30 39 16 21 1013.0 - 0.2
07/07:00am 3.4 -3.6 -3.5 60 2.5 W 24 32 13 17 1012.6 - 0.2
07/06:30am 4.4 -1.4 -0.4 71 1.9 WNW 20 30 11 16 1012.4 - 0.2
07/06:00am 6.2 0.7 1.6 72 2.0 WNW 20 43 11 23 1011.9 - 0.0
07/05:30am 6.8 1.5 2.0 71 2.1 NW 19 33 10 18 1011.5 - 0.0
07/04:30am 7.5 1.8 2.6 71 2.2 NW 22 32 12 17 1012.0 - 0.0
07/04:00am 7.2 2.9 3.3 76 1.8 NNW 15 22 8 12 1012.4 - 0.0
07/03:30am 6.6 3.1 3.4 80 1.4 N 11 13 6 7 1013.1 - 0.0
07/03:00am 6.9 3.0 3.3 78 1.6 NNW 13 17 7 9 1013.4 - 0.0
07/02:30am 6.8 4.5 2.7 75 1.8 NE 4 6 2 3 1014.0 - 0.0
07/02:00am 6.6 3.9 2.4 74 1.8 NE 6 9 3 5 1014.2 - 0.0
07/01:00am 6.7 2.8 1.2 68 2.4 WSW 11 17 6 9 1015.4 - 0.0
07/12:30am 6.6 3.6 1.1 68 2.3 S 6 9 3 5 1015.9 - 0.0
07/12:00am 6.7 3.8 1.3 68 2.3 NNW 6 9 3 5 1016.2 - 0.0
 
Date/Time
EST
Temp
°C
App
Temp
°C
Dew
Point
°C
Rel
Hum
%
Delta-T
°C
Wind Press
QNH
hPa
Press
MSL
hPa
Rain since
9am
mm
Dir  Spd
km/h
Gust
km/h
Spd
kts
Gust
kts
06/11:00pm 7.5 3.9 0.3 60 3.0 WNW 9 13 5 7 1016.6 - 0.0
06/10:30pm 7.5 1.6 -0.5 57 3.3 WNW 20 22 11 12 1016.9 - 0.0
06/10:00pm 5.7 2.8 1.4 74 1.8 SW 6 7 3 4 1016.9 - 0.0
06/09:30pm 6.2 4.7 2.9 79 1.5 CALM 0 2 0 1 1017.0 - 0.0
06/09:00pm 5.9 3.3 3.2 83 1.2 ENE 6 9 3 5 1017.1 - 0.0
06/08:30pm 6.9 4.4 4.0 82 1.3 E 6 9 3 5 1017.4 - 0.0
06/08:00pm 7.2 5.1 4.1 81 1.4 E 4 6 2 3 1017.5 - 0.0
06/07:00pm 9.0 7.3 4.0 71 2.3 W 2 6 1 3 1017.5 - 0.0
06/06:30pm 10.0 5.8 3.6 64 3.0 W 15 20 8 11 1018.0 - 0.0

Other formats

Comma delimited format used in spreadsheet applications
http://www.bom.gov.au/fwo/IDN60801/IDN60801.99765.axf

JavaScript Object Notation format (JSON) in row-major order
http://www.bom.gov.au/fwo/IDN60801/IDN60801.99765.json

Data quality

Most of these data are generated automatically and are frequently updated. Quality checks on data are not normally performed. It is possible for incorrect values to appear. Refer to information at About Latest Weather Observations and please check the disclaimer before using these data.